Terminal Aerodrome Forecast
Issued by NWS

Home | Current Version | Previous Version | Text Only | Print | Product List | Glossary On
Versions: 1 2 3 4 5 6 7 8 9 10 11 12 13 14
000
FTUS44 KCRP 282300
TAFALI
TAF
KALI 282340Z 2900/2924 11012KT P6SM SCT040 SCT120
     FM290500 10008KT P6SM SCT018 SCT120
     FM291000 12008KT P6SM VCSH SCT015 BKN040 PROB30 2910/2914 6SM
      SHRA BKN015 BKN040
     FM291400 12012KT P6SM VCTS SCT025CB BKN050
      TEMPO 2914/2918 4SM TSRA BR BKN015CB OVC040
     FM291800 13014KT P6SM VCTS SCT035CB BKN050
      TEMPO 2918/2922 5SM -TSRA BKN030CB=

USA.gov is the U.S. government's official web portal to all federal, state and local government web resources and services.